Gerd Maersk — OYGM2 — position and weather

sailwx.info

Track history (hours):
 
Tides and Currents Weather Stations Pressure Air Temp Water Temp Dewpoint Dewpoint Depression Visibility Wind Speed Wind Dir Waves Ship Positions

Gerd Maersk

Last reported at 2018-Jun-22 14:59 UTC. Time now 2018-Jun-22 15:23 UTC.
Position N 01°16' E 103°46'.

Length 367 m; draft 12.1 m.

Type: Ship (hazmat cat A). MMSI: 220415000.

Date/timePositionNaut miles runAvg speedWind from/ knotsBaromVisibWave heightAir tempDewpointWater temp
2018-Jun-22 14:59N 01°16' E 103°46'0 0.0
2018-Jun-22 14:29N 01°16' E 103°46'0 0.0
2018-Jun-22 13:59N 01°16' E 103°46'0 0.0
2018-Jun-22 13:29N 01°16' E 103°46'0 0.0
2018-Jun-22 12:59N 01°16' E 103°46'0 0.0
2018-Jun-22 12:29N 01°16' E 103°46'0 0.0
2018-Jun-22 11:59N 01°16' E 103°46'0 0.0
2018-Jun-22 11:29N 01°16' E 103°46'0 0.0
2018-Jun-22 10:58N 01°16' E 103°46'0 0.0
2018-Jun-22 10:29N 01°16' E 103°46'0 0.0
2018-Jun-22 09:59N 01°16' E 103°46'0 0.0
2018-Jun-22 09:29N 01°16' E 103°46'0 0.0
2018-Jun-22 08:59N 01°16' E 103°46'0 0.0
2018-Jun-22 08:29N 01°16' E 103°46'0 0.0
2018-Jun-22 07:56N 01°16' E 103°46'0 0.0
2018-Jun-22 07:28N 01°16' E 103°46'0 0.0
2018-Jun-22 06:58N 01°16' E 103°46'0 0.0
2018-Jun-22 06:26N 01°16' E 103°46'0 0.0
2018-Jun-22 05:59N 01°16' E 103°46'0 0.0
2018-Jun-22 05:29N 01°16' E 103°46'0 0.0
2018-Jun-22 04:59N 01°16' E 103°46'0 0.0
2018-Jun-22 04:29N 01°16' E 103°46'0 0.0
2018-Jun-22 03:59N 01°16' E 103°46'0 0.0
2018-Jun-22 03:26N 01°16' E 103°46'0 0.0
2018-Jun-22 02:53N 01°16' E 103°46'0 0.0
2018-Jun-22 02:29N 01°16' E 103°46'0 0.0
2018-Jun-22 01:59N 01°16' E 103°46'0 0.0
2018-Jun-22 01:28N 01°16' E 103°46'0 0.0
2018-Jun-22 00:59N 01°16' E 103°46'0 0.0
2018-Jun-22 00:22N 01°16' E 103°46'0 0.0
2018-Jun-21 23:58N 01°16' E 103°46'0 0.0
2018-Jun-21 23:28N 01°16' E 103°46'0 0.0
2018-Jun-21 22:58N 01°16' E 103°46'0 0.0
2018-Jun-21 22:28N 01°16' E 103°46'0 0.0
2018-Jun-21 21:59N 01°16' E 103°46'0 0.0
2018-Jun-21 21:29N 01°16' E 103°46'0 0.0
2018-Jun-21 20:59N 01°16' E 103°46'0 0.0
2018-Jun-21 20:26N 01°16' E 103°46'0 0.0
2018-Jun-21 19:59N 01°16' E 103°46'0 0.0
2018-Jun-21 19:28N 01°16' E 103°46'0 0.0
2018-Jun-21 18:59N 01°16' E 103°46'0 0.0
2018-Jun-21 18:29N 01°16' E 103°46'0 0.0
2018-Jun-21 17:58N 01°16' E 103°46'0 0.0
2018-Jun-21 17:29N 01°16' E 103°46'0 0.0
2018-Jun-21 16:59N 01°16' E 103°46'0 0.0
2018-Jun-21 16:29N 01°16' E 103°46'0 0.2
2018-Jun-21 16:01N 01°16' E 103°46'2 4.3
2018-Jun-21 15:30N 01°15' E 103°47'4 8.0
2018-Jun-21 15:01N 01°12' E 103°50'510.3
2018-Jun-21 14:30N 01°14' E 103°55'715.3
2018-Jun-21 14:01N 01°16' E 104°02'917.8
2018-Jun-21 13:29N 01°17' E 104°12'917.2
2018-Jun-21 12:59N 01°19' E 104°20'917.7
2018-Jun-21 12:28N 01°25' E 104°27'1217.1
2018-Jun-21 11:47N 01°34' E 104°35'717.1
2018-Jun-21 11:21N 01°41' E 104°38'  
2018-Jun-13 17:14N 22°29' E 119°52'410.6
2018-Jun-13 16:51N 22°30' E 119°56'411.0
2018-Jun-13 16:29N 22°30' E 120°01'611.6
2018-Jun-13 16:00N 22°31' E 120°07'611.4
2018-Jun-13 15:30N 22°33' E 120°13'611.3
2018-Jun-13 14:59N 22°33' E 120°19'1 0.1
2018-Jun-13 08:49N 22°33' E 120°20'0 0.0
2018-Jun-12 23:44N 22°33' E 120°20'1 2.2
2018-Jun-12 23:24N 22°33' E 120°19'3 6.8
2018-Jun-12 23:00N 22°32' E 120°16'2 3.8
2018-Jun-12 22:30N 22°32' E 120°14'5 8.6
2018-Jun-12 21:57N 22°35' E 120°11'613.8
2018-Jun-12 21:30N 22°40' E 120°07'713.7
2018-Jun-12 20:59N 22°46' E 120°03'  
Track history (hours):
 
Tides and Currents Weather Stations Pressure Air Temp Water Temp Dewpoint Dewpoint Depression Visibility Wind Speed Wind Dir Waves Ship Positions

Gerd Maersk

Last reported at 2018-Jun-22 14:59 UTC. Time now 2018-Jun-22 15:23 UTC.
Position N 01°16' E 103°46'.

Length 367 m; draft 12.1 m.

Type: Ship (hazmat cat A). MMSI: 220415000.

Date/timePositionNaut miles runAvg speedWind from/ knotsBaromVisibWave heightAir tempDewpointWater temp
2018-Jun-22 14:59N 01°16' E 103°46'0 0.0
2018-Jun-22 14:29N 01°16' E 103°46'0 0.0
2018-Jun-22 13:59N 01°16' E 103°46'0 0.0
2018-Jun-22 13:29N 01°16' E 103°46'0 0.0
2018-Jun-22 12:59N 01°16' E 103°46'0 0.0
2018-Jun-22 12:29N 01°16' E 103°46'0 0.0
2018-Jun-22 11:59N 01°16' E 103°46'0 0.0
2018-Jun-22 11:29N 01°16' E 103°46'0 0.0
2018-Jun-22 10:58N 01°16' E 103°46'0 0.0
2018-Jun-22 10:29N 01°16' E 103°46'0 0.0
2018-Jun-22 09:59N 01°16' E 103°46'0 0.0
2018-Jun-22 09:29N 01°16' E 103°46'0 0.0
2018-Jun-22 08:59N 01°16' E 103°46'0 0.0
2018-Jun-22 08:29N 01°16' E 103°46'0 0.0
2018-Jun-22 07:56N 01°16' E 103°46'0 0.0
2018-Jun-22 07:28N 01°16' E 103°46'0 0.0
2018-Jun-22 06:58N 01°16' E 103°46'0 0.0
2018-Jun-22 06:26N 01°16' E 103°46'0 0.0
2018-Jun-22 05:59N 01°16' E 103°46'0 0.0
2018-Jun-22 05:29N 01°16' E 103°46'0 0.0
2018-Jun-22 04:59N 01°16' E 103°46'0 0.0
2018-Jun-22 04:29N 01°16' E 103°46'0 0.0
2018-Jun-22 03:59N 01°16' E 103°46'0 0.0
2018-Jun-22 03:26N 01°16' E 103°46'0 0.0
2018-Jun-22 02:53N 01°16' E 103°46'0 0.0
2018-Jun-22 02:29N 01°16' E 103°46'0 0.0
2018-Jun-22 01:59N 01°16' E 103°46'0 0.0
2018-Jun-22 01:28N 01°16' E 103°46'0 0.0
2018-Jun-22 00:59N 01°16' E 103°46'0 0.0
2018-Jun-22 00:22N 01°16' E 103°46'0 0.0
2018-Jun-21 23:58N 01°16' E 103°46'0 0.0
2018-Jun-21 23:28N 01°16' E 103°46'0 0.0
2018-Jun-21 22:58N 01°16' E 103°46'0 0.0
2018-Jun-21 22:28N 01°16' E 103°46'0 0.0
2018-Jun-21 21:59N 01°16' E 103°46'0 0.0
2018-Jun-21 21:29N 01°16' E 103°46'0 0.0
2018-Jun-21 20:59N 01°16' E 103°46'0 0.0
2018-Jun-21 20:26N 01°16' E 103°46'0 0.0
2018-Jun-21 19:59N 01°16' E 103°46'0 0.0
2018-Jun-21 19:28N 01°16' E 103°46'0 0.0
2018-Jun-21 18:59N 01°16' E 103°46'0 0.0
2018-Jun-21 18:29N 01°16' E 103°46'0 0.0
2018-Jun-21 17:58N 01°16' E 103°46'0 0.0
2018-Jun-21 17:29N 01°16' E 103°46'0 0.0
2018-Jun-21 16:59N 01°16' E 103°46'0 0.0
2018-Jun-21 16:29N 01°16' E 103°46'0 0.2
2018-Jun-21 16:01N 01°16' E 103°46'2 4.3
2018-Jun-21 15:30N 01°15' E 103°47'4 8.0
2018-Jun-21 15:01N 01°12' E 103°50'510.3
2018-Jun-21 14:30N 01°14' E 103°55'715.3
2018-Jun-21 14:01N 01°16' E 104°02'917.8
2018-Jun-21 13:29N 01°17' E 104°12'917.2
2018-Jun-21 12:59N 01°19' E 104°20'917.7
2018-Jun-21 12:28N 01°25' E 104°27'1217.1
2018-Jun-21 11:47N 01°34' E 104°35'717.1
2018-Jun-21 11:21N 01°41' E 104°38'  
2018-Jun-13 17:14N 22°29' E 119°52'410.6
2018-Jun-13 16:51N 22°30' E 119°56'411.0
2018-Jun-13 16:29N 22°30' E 120°01'611.6
2018-Jun-13 16:00N 22°31' E 120°07'611.4
2018-Jun-13 15:30N 22°33' E 120°13'611.3
2018-Jun-13 14:59N 22°33' E 120°19'1 0.1
2018-Jun-13 08:49N 22°33' E 120°20'0 0.0
2018-Jun-12 23:44N 22°33' E 120°20'1 2.2
2018-Jun-12 23:24N 22°33' E 120°19'3 6.8
2018-Jun-12 23:00N 22°32' E 120°16'2 3.8
2018-Jun-12 22:30N 22°32' E 120°14'5 8.6
2018-Jun-12 21:57N 22°35' E 120°11'613.8
2018-Jun-12 21:30N 22°40' E 120°07'713.7
2018-Jun-12 20:59N 22°46' E 120°03'  

Dump ship's entire track history